Aurora, NC (27806)

1:15 AM EDT on July 31, 2016 (GMT -0400)
S.W.Snowden Elementary School | | Change Station

Elev 36 ft 35.31 °N, 76.79 °W | Updated 11 minutes ago

Light Rain
Light Rain
79.3 °F
Feels Like 84 °F
N
0.0
Wind Variable Wind from SW
Gusts 1.0 mph

Today
High -- | Low -- °F
--% Chance of Precip.
Yesterday
High -- | Low -- °F
Precip. -- in
Pressure 30.01 in
Visibility 10.0 miles
Clouds Scattered Clouds 7000 ft
Heat Index 84 °F
Dew Point 78 °F
Humidity 97%
Rainfall 0.00 in
Snow Depth Not available.
6:15 AM 8:10 PM
Waning Crescent, 9% visible
METAR KEWN 310454Z AUTO 20005KT 10SM -RA SCT070 27/25 A3000 RMK AO2 RAB52 SLP160 P0000 T02670250 403610244
Pressure 30.01 in
Visibility 10.0 miles
Clouds Scattered Clouds 7000 ft
Heat Index 84 °F
Dew Point 78 °F
Humidity 97%
Rainfall 0.00 in
Snow Depth Not available.
6:15 AM 8:10 PM
Waning Crescent, 9% visible
METAR KEWN 310454Z AUTO 20005KT 10SM -RA SCT070 27/25 A3000 RMK AO2 RAB52 SLP160 P0000 T02670250 403610244

10-Day Weather Forecast

Almanac

Astronomy

Jul. 31, 2016 Rise Set
Actual Time
Civil Twilight
Nautical Twilight
Astronomical Twilight
Moon
Length of Visible Light
Length of Day
Tomorrow will be .
, % of the Moon is Illuminated

Today's Extremes

State Highs State Lows

Community

WunderPhotos

Upload Photos

1,928,764 photos uploaded!

WunderBlog® & News

Nearby

Air Quality

  Air Quality AQ Index Pollutant
Not available.

Snow Depth

Station Depth Elevation

Earthquake Activity

City Distance Mag. Time & Date
Minimum magnitude displayed is 2.5.

Coastal Water Temperatures

Place Temperature

Stations

Nearby Weather Stations

Station Location Temp. Windchill Dew Point Humidity Wind Precip. Elev Updated Type
                   

Watches & Warnings

There are currently no watches in effect.